createdAt,value
2019-04-06T00:01:05.357Z,69.77
2019-04-06T00:03:32.009Z,69.90
2019-04-06T00:05:58.777Z,69.92
2019-04-06T00:08:25.615Z,70.21
2019-04-06T00:10:52.482Z,70.32
2019-04-06T00:13:19.250Z,70.27
2019-04-06T00:15:46.022Z,70.46
2019-04-06T00:18:12.668Z,70.57
2019-04-06T00:20:39.323Z,70.90
2019-04-06T00:23:05.984Z,71.06
2019-04-06T00:25:43.484Z,71.20
2019-04-06T00:28:01.240Z,71.48
2019-04-06T00:30:30.885Z,71.57
2019-04-06T00:33:01.474Z,71.49
2019-04-06T00:35:28.031Z,71.79
2019-04-06T00:37:54.607Z,71.88
2019-04-06T00:40:21.268Z,71.91
2019-04-06T00:42:47.923Z,72.14
2019-04-06T00:45:14.586Z,71.86
2019-04-06T00:47:42.282Z,71.92
2019-04-06T00:50:09.119Z,71.90
2019-04-06T00:52:35.644Z,71.99
2019-04-06T00:55:02.429Z,72.00
2019-04-06T00:57:29.361Z,72.09
2019-04-06T00:59:56.132Z,72.20
2019-04-06T01:02:22.952Z,72.44
2019-04-06T01:04:49.659Z,72.47
2019-04-06T01:07:16.366Z,72.55
2019-04-06T01:09:43.117Z,72.46
2019-04-06T01:12:09.776Z,72.55
2019-04-06T01:14:36.533Z,72.46
2019-04-06T01:17:03.425Z,72.49
2019-04-06T01:19:30.136Z,72.78
2019-04-06T01:21:56.784Z,72.71
2019-04-06T01:24:23.553Z,72.76
2019-04-06T01:26:50.206Z,72.58
2019-04-06T01:29:16.853Z,72.55
2019-04-06T01:31:43.535Z,72.65
2019-04-06T01:34:10.070Z,72.78
2019-04-06T01:36:36.617Z,72.82
2019-04-06T01:39:04.917Z,72.80
2019-04-06T01:41:31.585Z,72.81
2019-04-06T01:43:58.295Z,72.86
2019-04-06T01:46:25.052Z,72.95
2019-04-06T01:48:51.987Z,72.95
2019-04-06T01:51:18.639Z,73.16
2019-04-06T01:53:45.312Z,73.40
2019-04-06T01:56:18.434Z,73.43
2019-04-06T01:58:40.631Z,73.65
2019-04-06T02:01:29.825Z,73.63
2019-04-06T02:03:56.585Z,73.56
2019-04-06T02:06:23.429Z,73.71
2019-04-06T02:08:54.202Z,73.68
2019-04-06T02:11:21.078Z,73.73
2019-04-06T02:13:47.741Z,73.79
2019-04-06T02:16:14.479Z,74.00
2019-04-06T02:18:41.129Z,73.89
2019-04-06T02:21:07.910Z,73.93
2019-04-06T02:23:34.563Z,73.74
2019-04-06T02:26:01.332Z,73.91
2019-04-06T02:28:28.017Z,74.01
2019-04-06T02:31:14.331Z,73.99
2019-04-06T02:34:03.550Z,74.12
2019-04-06T02:36:48.430Z,74.14
2019-04-06T02:39:45.696Z,74.19
2019-04-06T02:42:16.935Z,74.25
2019-04-06T02:44:43.645Z,74.63
2019-04-06T02:47:10.369Z,75.50
2019-04-06T02:49:37.167Z,74.93
2019-04-06T02:52:03.826Z,74.90
2019-04-06T02:54:30.472Z,75.14
2019-04-06T02:56:57.308Z,75.27
2019-04-06T02:59:24.058Z,75.39
2019-04-06T03:01:50.842Z,75.45
2019-04-06T03:04:17.578Z,75.62
2019-04-06T03:06:44.394Z,75.53
2019-04-06T03:09:11.983Z,75.51
2019-04-06T03:11:38.964Z,75.56
2019-04-06T03:14:06.104Z,75.34
2019-04-06T03:16:32.896Z,75.50
2019-04-06T03:18:59.595Z,75.32
2019-04-06T03:21:26.377Z,75.30
2019-04-06T03:23:53.122Z,75.43
2019-04-06T03:26:19.959Z,75.64
2019-04-06T03:28:46.864Z,75.44
2019-04-06T03:31:13.676Z,75.69
2019-04-06T03:33:40.502Z,75.76
2019-04-06T03:36:07.539Z,75.76
2019-04-06T03:38:34.287Z,75.54
2019-04-06T03:41:01.017Z,75.82
2019-04-06T03:43:27.779Z,75.86
2019-04-06T03:45:54.384Z,75.72
2019-04-06T03:48:21.125Z,75.67
2019-04-06T03:50:47.940Z,75.64
2019-04-06T03:53:14.788Z,75.70
2019-04-06T03:55:41.453Z,75.63
2019-04-06T03:58:08.113Z,75.44
2019-04-06T04:00:34.791Z,75.59
2019-04-06T04:03:01.690Z,75.83
2019-04-06T04:05:28.450Z,75.70
2019-04-06T04:07:55.197Z,75.96
2019-04-06T04:10:30.113Z,75.96
2019-04-06T04:12:57.218Z,76.00
2019-04-06T04:15:23.878Z,75.79
2019-04-06T04:17:53.139Z,76.02
2019-04-06T04:20:19.833Z,76.02
2019-04-06T04:22:46.575Z,76.00
2019-04-06T04:25:13.330Z,76.03
2019-04-06T04:27:40.754Z,76.04
2019-04-06T04:30:07.425Z,75.96
2019-04-06T04:32:34.295Z,75.86
2019-04-06T04:35:00.923Z,75.81
2019-04-06T04:37:27.666Z,75.81
2019-04-06T04:39:54.393Z,75.72
2019-04-06T04:42:21.213Z,75.78
2019-04-06T04:44:47.849Z,75.90
2019-04-06T04:47:15.675Z,75.81
2019-04-06T04:49:42.760Z,75.50
2019-04-06T04:52:09.440Z,75.62
2019-04-06T04:54:36.251Z,75.58
2019-04-06T04:57:02.964Z,75.72
2019-04-06T04:59:29.871Z,75.74
2019-04-06T05:01:56.462Z,75.55
2019-04-06T05:04:23.378Z,75.75
2019-04-06T05:06:52.600Z,75.46
2019-04-06T05:09:19.631Z,75.21
2019-04-06T05:11:48.957Z,75.05
2019-04-06T05:14:52.536Z,75.19
2019-04-06T05:17:19.214Z,75.06
2019-04-06T05:19:46.088Z,75.26
2019-04-06T05:22:13.005Z,75.27
2019-04-06T05:24:39.664Z,75.28
2019-04-06T05:27:06.481Z,75.18
2019-04-06T05:29:33.665Z,74.76
2019-04-06T05:32:02.549Z,75.13
2019-04-06T05:34:29.267Z,75.16
2019-04-06T05:36:57.137Z,74.80
2019-04-06T05:39:23.909Z,75.09
2019-04-06T05:41:51.179Z,75.14
2019-04-06T05:44:17.974Z,75.41
2019-04-06T05:46:44.636Z,75.57
2019-04-06T05:49:11.490Z,75.77
2019-04-06T05:51:38.376Z,75.48
2019-04-06T05:54:05.146Z,75.55
2019-04-06T05:56:31.789Z,75.53
2019-04-06T05:58:58.451Z,75.60
2019-04-06T06:01:25.295Z,75.59
2019-04-06T06:03:52.108Z,75.53
2019-04-06T06:06:18.814Z,75.12
2019-04-06T06:08:45.474Z,75.03
2019-04-06T06:11:12.278Z,74.94
2019-04-06T06:13:39.440Z,74.86
2019-04-06T06:16:06.085Z,74.87
2019-04-06T06:18:32.862Z,74.93
2019-04-06T06:20:59.480Z,74.91
2019-04-06T06:23:27.290Z,74.91
2019-04-06T06:25:54.075Z,74.99
2019-04-06T06:28:20.793Z,74.93
2019-04-06T06:30:47.515Z,74.80
2019-04-06T06:33:14.352Z,74.27
2019-04-06T06:35:41.074Z,74.47
2019-04-06T06:38:08.088Z,74.50
2019-04-06T06:40:34.728Z,74.40
2019-04-06T06:43:01.546Z,74.40
2019-04-06T06:45:28.242Z,74.48
2019-04-06T06:47:54.895Z,74.30
2019-04-06T06:50:21.568Z,74.22
2019-04-06T06:52:48.871Z,73.89
2019-04-06T06:55:15.636Z,73.52
2019-04-06T06:57:42.293Z,73.40
2019-04-06T07:00:09.092Z,73.52
2019-04-06T07:02:35.848Z,73.03
2019-04-06T07:05:03.098Z,72.94
2019-04-06T07:07:29.699Z,73.28
2019-04-06T07:10:04.466Z,72.39
2019-04-06T07:12:25.623Z,72.38
2019-04-06T07:14:52.561Z,71.85
2019-04-06T07:19:59.293Z,70.27
2019-04-06T07:22:26.114Z,70.47
2019-04-06T07:24:52.776Z,70.74
2019-04-06T07:27:19.597Z,69.05
2019-04-06T07:29:46.248Z,68.84
2019-04-06T07:32:13.158Z,67.82
2019-04-06T07:34:39.823Z,66.68
2019-04-06T07:37:06.638Z,66.10
2019-04-06T07:39:33.354Z,64.30
2019-04-06T07:42:00.127Z,63.94
2019-04-06T07:44:26.758Z,61.71
2019-04-06T07:46:53.390Z,60.00
2019-04-06T07:49:20.374Z,60.42
2019-04-06T07:51:47.055Z,58.73
2019-04-06T07:54:13.798Z,57.57
2019-04-06T07:56:41.541Z,55.55
2019-04-06T07:59:08.088Z,55.75
2019-04-06T08:01:34.789Z,54.86
2019-04-06T08:04:01.521Z,54.57
2019-04-06T08:06:28.282Z,55.13
2019-04-06T08:08:55.033Z,55.16
2019-04-06T08:11:21.750Z,55.48
2019-04-06T08:13:48.393Z,55.62
2019-04-06T08:16:15.245Z,57.00
2019-04-06T08:18:42.112Z,56.51
2019-04-06T08:21:08.893Z,56.08
2019-04-06T08:23:35.607Z,55.69
2019-04-06T08:26:02.402Z,54.24
2019-04-06T08:28:29.329Z,54.67
2019-04-06T08:30:56.113Z,54.33
2019-04-06T08:33:22.787Z,53.95
2019-04-06T08:35:49.474Z,53.53
2019-04-06T08:38:16.115Z,52.83
2019-04-06T08:40:43.237Z,52.74
2019-04-06T08:43:09.963Z,52.34
2019-04-06T08:45:36.604Z,52.43
2019-04-06T08:48:03.419Z,50.88
2019-04-06T08:50:30.090Z,50.91
2019-04-06T08:52:56.926Z,50.13
2019-04-06T08:55:23.473Z,50.28
2019-04-06T08:57:50.211Z,48.68
2019-04-06T09:00:18.030Z,48.02
2019-04-06T09:02:44.803Z,48.62
2019-04-06T09:05:12.050Z,49.49
2019-04-06T09:07:40.754Z,49.61
2019-04-06T09:10:07.502Z,49.35
2019-04-06T09:12:34.226Z,49.04
2019-04-06T09:15:00.782Z,49.77
2019-04-06T09:17:27.596Z,48.56
2019-04-06T09:19:54.594Z,50.21
2019-04-06T09:22:21.291Z,49.75
2019-04-06T09:24:48.149Z,49.36
2019-04-06T09:27:14.981Z,49.24
2019-04-06T09:29:41.638Z,49.20
2019-04-06T09:32:08.594Z,49.16
2019-04-06T09:34:35.230Z,47.80
2019-04-06T09:37:02.073Z,48.02
2019-04-06T09:39:28.807Z,47.53
2019-04-06T09:41:55.813Z,45.99
2019-04-06T09:44:42.185Z,45.48
2019-04-06T09:47:28.960Z,44.97
2019-04-06T09:50:04.901Z,45.12
2019-04-06T09:52:38.208Z,45.52
2019-04-06T09:55:24.709Z,44.94
2019-04-06T09:58:16.993Z,45.00
2019-04-06T10:00:58.538Z,44.21
2019-04-06T10:03:50.543Z,43.85
2019-04-06T10:06:29.036Z,43.39
2019-04-06T10:09:18.003Z,41.50
